createdAt,value
2023-02-05T00:01:29.076Z,3.10
2023-02-05T00:03:56.253Z,2.60
2023-02-05T00:06:23.362Z,3.30
2023-02-05T00:08:50.938Z,3.73
2023-02-05T00:11:31.520Z,2.90
2023-02-05T00:14:04.863Z,4.10
2023-02-05T00:16:39.100Z,3.80
2023-02-05T00:19:08.840Z,2.80
2023-02-05T00:21:36.294Z,4.37
2023-02-05T00:24:03.399Z,4.30
2023-02-05T00:26:30.488Z,4.40
2023-02-05T00:28:57.846Z,4.90
2023-02-05T00:31:25.579Z,4.10
2023-02-05T00:33:52.957Z,3.00
2023-02-05T00:36:21.594Z,3.80
2023-02-05T00:38:49.047Z,3.10
2023-02-05T00:41:17.151Z,3.17
2023-02-05T00:43:44.555Z,3.13
2023-02-05T00:46:13.676Z,3.60
2023-02-05T00:48:41.506Z,3.20
2023-02-05T00:51:09.595Z,2.97
2023-02-05T00:53:36.814Z,2.53
2023-02-05T00:56:03.961Z,3.60
2023-02-05T00:58:31.105Z,3.97
2023-02-05T01:00:58.142Z,4.13
2023-02-05T01:03:25.068Z,3.93
2023-02-05T01:05:51.962Z,3.40
2023-02-05T01:08:18.818Z,2.93
2023-02-05T01:10:47.494Z,4.70
2023-02-05T01:13:17.688Z,3.27
2023-02-05T01:15:45.708Z,5.03
2023-02-05T01:18:13.302Z,3.23
2023-02-05T01:20:41.635Z,3.90
2023-02-05T01:23:09.332Z,3.10
2023-02-05T01:25:36.659Z,3.60
2023-02-05T01:28:04.501Z,4.17
2023-02-05T01:30:31.437Z,3.80
2023-02-05T01:32:58.401Z,3.70
2023-02-05T01:35:25.354Z,4.00
2023-02-05T01:37:52.280Z,3.83
2023-02-05T01:40:22.210Z,3.20
2023-02-05T01:42:49.141Z,4.80
2023-02-05T01:45:22.139Z,4.60
2023-02-05T01:47:57.683Z,5.23
2023-02-05T01:50:27.095Z,4.03
2023-02-05T01:52:55.375Z,4.73
2023-02-05T01:55:22.330Z,3.77
2023-02-05T01:57:50.844Z,4.17
2023-02-05T02:00:18.020Z,3.13
2023-02-05T02:02:45.643Z,4.07
2023-02-05T02:05:15.739Z,5.80
2023-02-05T02:07:42.943Z,8.53
2023-02-05T02:10:12.879Z,8.20
2023-02-05T02:12:43.827Z,7.70
2023-02-05T02:15:21.009Z,6.43
2023-02-05T02:17:52.439Z,5.13
2023-02-05T02:20:22.666Z,7.87
2023-02-05T02:23:08.252Z,6.57
2023-02-05T02:25:59.919Z,6.37
2023-02-05T02:28:52.176Z,5.50
2023-02-05T02:31:35.041Z,7.13
2023-02-05T02:34:11.493Z,5.00
2023-02-05T02:37:17.737Z,6.80
2023-02-05T02:40:11.336Z,9.57
2023-02-05T02:42:45.031Z,8.03
2023-02-05T02:45:14.467Z,7.77
2023-02-05T02:47:48.171Z,9.20
2023-02-05T02:50:22.766Z,6.90
2023-02-05T02:52:52.147Z,6.27
2023-02-05T02:55:20.452Z,4.43
2023-02-05T02:57:49.241Z,7.43
2023-02-05T03:00:19.975Z,6.23
2023-02-05T03:02:49.706Z,5.50
2023-02-05T03:05:19.864Z,3.50
2023-02-05T03:07:57.131Z,3.83
2023-02-05T03:10:27.215Z,4.27
2023-02-05T03:12:57.051Z,4.43
2023-02-05T03:15:25.665Z,4.07
2023-02-05T03:18:04.978Z,4.80
2023-02-05T03:20:39.938Z,4.00
2023-02-05T03:23:08.504Z,5.40
2023-02-05T03:25:37.412Z,5.20
2023-02-05T03:28:06.273Z,4.70
2023-02-05T03:30:55.352Z,4.60
2023-02-05T03:33:55.409Z,3.50
2023-02-05T03:36:41.493Z,7.10
2023-02-05T03:39:18.768Z,5.83
2023-02-05T03:42:07.380Z,4.73
2023-02-05T03:44:57.210Z,4.23
2023-02-05T03:47:41.864Z,3.90
2023-02-05T03:50:34.276Z,4.47
2023-02-05T03:53:23.441Z,3.97
2023-02-05T03:56:07.088Z,5.80
2023-02-05T03:58:48.980Z,4.77
2023-02-05T04:01:20.160Z,7.47
2023-02-05T04:03:49.025Z,5.57
2023-02-05T04:06:17.164Z,5.63
2023-02-05T04:08:45.092Z,5.73
2023-02-05T04:11:14.561Z,5.67
2023-02-05T04:13:42.828Z,5.03
2023-02-05T04:16:11.025Z,4.43
2023-02-05T04:18:39.015Z,5.93
2023-02-05T04:21:07.013Z,5.93
2023-02-05T04:23:35.478Z,5.10
2023-02-05T04:26:04.285Z,4.73
2023-02-05T04:28:32.710Z,5.60
2023-02-05T04:31:00.994Z,6.20
2023-02-05T04:33:28.720Z,4.80
2023-02-05T04:36:01.262Z,7.40
2023-02-05T04:38:29.536Z,7.00
2023-02-05T04:40:57.903Z,4.97
2023-02-05T04:43:26.033Z,6.20
2023-02-05T04:45:53.827Z,6.30
2023-02-05T04:48:21.901Z,4.70
2023-02-05T04:50:49.640Z,7.17
2023-02-05T04:53:17.305Z,6.93
2023-02-05T04:55:45.471Z,7.57
2023-02-05T04:58:13.021Z,6.60
2023-02-05T05:00:40.723Z,7.80
2023-02-05T05:03:09.015Z,7.20
2023-02-05T05:05:37.061Z,6.70
2023-02-05T05:08:05.031Z,5.37
2023-02-05T05:10:32.961Z,6.03
2023-02-05T05:13:01.167Z,11.00
2023-02-05T05:15:29.311Z,10.00
2023-02-05T05:17:57.082Z,7.00
2023-02-05T05:20:25.054Z,6.07
2023-02-05T05:22:53.354Z,7.00
2023-02-05T05:25:21.422Z,7.10
2023-02-05T05:27:50.102Z,12.90
2023-02-05T05:30:18.501Z,6.60
2023-02-05T05:32:46.383Z,6.90
2023-02-05T05:35:14.587Z,5.30
2023-02-05T05:37:42.583Z,8.13
2023-02-05T05:40:31.469Z,4.90
2023-02-05T05:43:18.343Z,4.87
2023-02-05T05:45:46.110Z,3.23
2023-02-05T05:48:13.896Z,4.93
2023-02-05T05:50:42.467Z,4.40
2023-02-05T05:53:10.476Z,4.27
2023-02-05T05:55:38.221Z,4.63
2023-02-05T05:58:07.151Z,3.50
2023-02-05T06:00:35.100Z,4.83
2023-02-05T06:03:02.860Z,3.10
2023-02-05T06:05:31.101Z,3.50
2023-02-05T06:07:59.398Z,3.23
2023-02-05T06:10:27.128Z,3.80
2023-02-05T06:12:56.012Z,3.90
2023-02-05T06:15:23.982Z,7.40
2023-02-05T06:17:51.972Z,5.50
2023-02-05T06:20:21.121Z,4.03
2023-02-05T06:22:49.550Z,6.13
2023-02-05T06:25:18.120Z,4.33
2023-02-05T06:27:45.927Z,6.50
2023-02-05T06:30:14.049Z,7.37
2023-02-05T06:32:41.980Z,5.93
2023-02-05T06:35:09.302Z,3.50
2023-02-05T06:37:47.016Z,6.00
2023-02-05T06:40:18.351Z,7.03
2023-02-05T06:42:45.691Z,7.70
2023-02-05T06:45:12.630Z,6.23
2023-02-05T06:47:39.859Z,5.73
2023-02-05T06:50:07.578Z,6.03
2023-02-05T06:52:34.724Z,5.53
2023-02-05T06:55:02.386Z,4.93
2023-02-05T06:57:32.286Z,5.20
2023-02-05T07:00:00.360Z,7.27
2023-02-05T07:02:28.296Z,7.70
2023-02-05T07:04:56.040Z,5.70
2023-02-05T07:07:23.771Z,6.30
2023-02-05T07:09:51.605Z,8.30
2023-02-05T07:12:19.376Z,6.80
2023-02-05T07:14:47.079Z,7.13
2023-02-05T07:17:15.141Z,7.23
2023-02-05T07:19:43.286Z,9.07
2023-02-05T07:22:14.790Z,7.47
2023-02-05T07:24:43.249Z,7.90
2023-02-05T07:27:11.476Z,7.70
2023-02-05T07:29:39.524Z,7.53
2023-02-05T07:32:09.771Z,7.77
2023-02-05T07:34:44.320Z,8.73
2023-02-05T07:37:13.929Z,7.17
2023-02-05T07:39:42.745Z,8.20
2023-02-05T07:42:10.515Z,6.40
2023-02-05T07:44:41.250Z,8.00
2023-02-05T07:47:12.682Z,9.03
2023-02-05T07:49:40.828Z,8.73
2023-02-05T07:52:08.668Z,10.70
2023-02-05T07:54:40.671Z,8.67
2023-02-05T07:57:08.934Z,7.93
2023-02-05T07:59:41.849Z,6.30
2023-02-05T08:04:57.430Z,5.50
2023-02-05T08:07:25.838Z,10.90
2023-02-05T08:09:55.431Z,10.70
2023-02-05T08:12:24.558Z,8.97
2023-02-05T08:14:53.499Z,7.53
2023-02-05T08:17:21.896Z,7.90
2023-02-05T08:19:51.706Z,10.30
2023-02-05T08:22:19.763Z,10.43
2023-02-05T08:24:48.160Z,17.03
2023-02-05T08:27:16.615Z,18.70
2023-02-05T08:29:49.149Z,9.43
2023-02-05T08:32:17.498Z,10.20
2023-02-05T08:34:46.117Z,16.67
2023-02-05T08:37:14.552Z,11.73
2023-02-05T08:39:43.110Z,12.60
2023-02-05T08:42:11.527Z,12.50
2023-02-05T08:44:40.223Z,12.53
2023-02-05T08:47:08.355Z,9.77
2023-02-05T08:49:40.968Z,9.87
2023-02-05T09:07:19.942Z,9.63
2023-02-05T09:21:24.941Z,14.60
2023-02-05T09:23:54.745Z,10.40
2023-02-05T09:26:28.039Z,13.93
2023-02-05T09:28:56.932Z,8.77
2023-02-05T09:31:33.580Z,9.10
2023-02-05T09:37:07.626Z,22.33
2023-02-05T12:26:57.842Z,9.43
2023-02-05T12:29:42.217Z,7.47
2023-02-05T12:35:05.160Z,13.70
2023-02-05T12:59:12.696Z,6.77
2023-02-05T17:17:54.696Z,10.80
2023-02-05T17:20:43.476Z,12.60
2023-02-05T17:23:21.595Z,13.40
2023-02-05T17:26:26.590Z,14.13
2023-02-05T17:29:00.124Z,7.03
2023-02-05T17:31:34.830Z,8.60
2023-02-05T17:37:12.719Z,13.73
2023-02-05T17:42:35.265Z,6.70
2023-02-05T17:53:54.880Z,13.50
2023-02-05T18:33:10.917Z,5.70
2023-02-05T18:35:51.127Z,5.17
2023-02-05T18:47:40.833Z,10.87
2023-02-05T21:08:01.780Z,7.93
2023-02-05T21:10:28.790Z,5.90
2023-02-05T21:12:55.789Z,6.90
2023-02-05T21:15:23.586Z,6.17
2023-02-05T21:17:50.520Z,7.90
2023-02-05T21:20:17.423Z,5.13
2023-02-05T21:22:59.706Z,4.30
2023-02-05T21:25:27.204Z,5.43
2023-02-05T21:27:54.168Z,5.87
2023-02-05T21:30:21.088Z,8.03
2023-02-05T21:32:48.007Z,6.80
2023-02-05T21:35:15.017Z,10.40
2023-02-05T21:37:44.318Z,5.00
2023-02-05T21:40:11.796Z,4.93
2023-02-05T21:42:38.711Z,6.20
2023-02-05T21:45:06.476Z,5.57
2023-02-05T21:47:33.340Z,6.17
2023-02-05T21:50:00.185Z,7.33
2023-02-05T21:52:27.162Z,6.30
2023-02-05T21:54:54.063Z,6.10
2023-02-05T21:57:24.903Z,8.23
2023-02-05T21:59:52.126Z,5.03
2023-02-05T22:02:19.034Z,4.20
2023-02-05T22:04:45.900Z,5.70
2023-02-05T22:07:12.836Z,7.90
2023-02-05T22:09:39.797Z,7.07
2023-02-05T22:12:06.759Z,5.00
2023-02-05T22:14:34.154Z,5.20
2023-02-05T22:17:01.344Z,3.83
2023-02-05T22:19:28.480Z,3.40
2023-02-05T22:21:55.298Z,4.87
2023-02-05T22:24:25.381Z,3.97
2023-02-05T22:26:53.002Z,5.87
2023-02-05T22:29:20.795Z,4.63
2023-02-05T22:31:52.528Z,4.20
2023-02-05T22:34:19.939Z,4.97
2023-02-05T22:36:47.316Z,5.80
2023-02-05T22:39:14.169Z,7.13
2023-02-05T22:41:42.595Z,6.20
2023-02-05T22:44:11.192Z,4.63
2023-02-05T22:46:40.902Z,4.30
2023-02-05T22:49:08.049Z,3.90
2023-02-05T22:51:38.246Z,4.73
2023-02-05T22:54:07.432Z,5.60
2023-02-05T22:56:34.564Z,5.30
2023-02-05T22:59:03.414Z,5.97
2023-02-05T23:01:33.805Z,3.37
2023-02-05T23:04:02.692Z,4.90
2023-02-05T23:06:35.904Z,6.60
2023-02-05T23:09:05.137Z,5.67
2023-02-05T23:11:33.166Z,5.00
2023-02-05T23:14:00.920Z,5.60
2023-02-05T23:16:31.195Z,7.90
2023-02-05T23:19:04.412Z,6.00
2023-02-05T23:21:33.281Z,8.47
2023-02-05T23:24:00.205Z,6.20
2023-02-05T23:26:31.518Z,5.77
2023-02-05T23:28:59.177Z,4.97
2023-02-05T23:31:26.726Z,6.33
2023-02-05T23:33:54.157Z,7.57
2023-02-05T23:36:21.331Z,6.80
2023-02-05T23:38:48.759Z,7.07
2023-02-05T23:41:35.182Z,8.63
2023-02-05T23:44:13.446Z,8.17
2023-02-05T23:46:41.791Z,11.93
2023-02-05T23:49:08.928Z,7.00
2023-02-05T23:51:36.183Z,9.70
2023-02-05T23:54:04.034Z,6.13
2023-02-05T23:56:31.597Z,4.70
2023-02-05T23:58:59.322Z,7.67
